カラチ の空港の天気 - METARとTAF

ジンナー国際空港(カラチ) ( OPKC / KHI ) - パキスタン Karachi
飛行場実況気象(Metar)
観測時間05/27 03:25 PKT (05/26 22:25 UTC)
風向・風速西南西 4m/s
視程6000m
天気現象
なし
気温30℃
湿度66%
気圧1003hPa
METAROPKC 262225Z 24008KT 6000 NSC 30/23 Q1003 NOSIG
過去の天気等 Google飛行場航空写真 Wunderground天気予報

過去48時間のMETAR

飛行場予報(TAF)
発表時間: 5/26 23:30 PKT (5/26 18:30 UTC)
予報対象時間: 27日2時 PKT ~ 27日11時 PKT
風向・風速西南西 5m/s
視程6000m
なし
27日5時 PKT ~ 27日9時 PKT に一時的に
風向・風速西 8m/s
視程5000m
天気現象煙霧
全天の4割程度の雲 雲底高度 760m
TAF OPKC 261830Z 2621/2706 25010KT 6000 NSC
TEMPO 2700/2704 27015KT 5000 HZ SCT025